Time;durP1;ratioP1;P1;durP2;ratioP2;P2;SDS_P1;SDS_P2;PMS_P1;PMS_P2;Temp;Humidity;BMP_temperature;BMP_pressure;BME280_temperature;BME280_humidity;BME280_pressure;Samples;Min_cycle;Max_cycle;Signal;HPM_P1;HPM_P2
2021/04/15 00:00:21;;;;;;;1.83;1.20;;;5.20;62.00;;;;;;5096821;28;20027;-90
2021/04/15 00:02:46;;;;;;;2.50;1.37;;;5.10;62.60;;;;;;5097608;28;20081;-90
2021/04/15 00:05:16;;;;;;;1.97;1.13;;;5.00;62.70;;;;;;5097367;28;20091;-91
2021/04/15 00:07:42;;;;;;;4.17;1.50;;;4.90;63.40;;;;;;5097180;28;20023;-91
2021/04/15 00:10:11;;;;;;;2.70;1.37;;;4.80;63.50;;;;;;5116190;28;20430;-90
2021/04/15 00:12:38;;;;;;;2.37;1.43;;;4.80;63.40;;;;;;5097563;28;20028;-90
2021/04/15 00:15:09;;;;;;;2.00;1.47;;;4.80;63.40;;;;;;5098105;28;20039;-90
2021/04/15 00:17:35;;;;;;;4.15;1.17;;;4.80;63.90;;;;;;5098415;28;20027;-90
2021/04/15 00:20:01;;;;;;;4.10;1.60;;;4.70;64.00;;;;;;5115663;28;20066;-90
2021/04/15 00:22:26;;;;;;;3.27;1.60;;;4.60;64.50;;;;;;5097409;28;20032;-90
2021/04/15 00:24:52;;;;;;;2.90;1.50;;;4.60;64.70;;;;;;5097031;28;20448;-90
2021/04/15 00:27:17;;;;;;;5.80;1.87;;;4.50;64.80;;;;;;5097369;28;20483;-87
2021/04/15 00:29:43;;;;;;;3.00;1.63;;;4.60;64.70;;;;;;5115824;28;20024;-86
2021/04/15 00:32:09;;;;;;;4.53;1.90;;;4.50;65.00;;;;;;5096823;28;20077;-86
2021/04/15 00:34:34;;;;;;;3.27;2.00;;;4.60;65.20;;;;;;5095984;28;20052;-86
2021/04/15 00:37:00;;;;;;;4.60;1.93;;;4.60;65.40;;;;;;5096915;28;20045;-86
2021/04/15 00:39:26;;;;;;;3.37;1.80;;;4.70;65.10;;;;;;5096171;28;20114;-86
2021/04/15 00:41:51;;;;;;;4.30;1.83;;;4.70;65.50;;;;;;5096637;28;20059;-86
2021/04/15 00:44:17;;;;;;;2.67;1.87;;;4.80;64.80;;;;;;5096099;28;20479;-86
2021/04/15 00:46:53;;;;;;;5.00;1.90;;;4.70;64.90;;;;;;5096951;28;20028;-86
2021/04/15 00:49:31;;;;;;;3.57;1.67;;;4.70;64.50;;;;;;5114286;28;20045;-85
2021/04/15 00:52:04;;;;;;;3.67;1.73;;;4.70;64.50;;;;;;5092682;28;20040;-89
2021/04/15 00:54:39;;;;;;;3.13;1.80;;;4.70;64.50;;;;;;5092656;28;20067;-90
2021/04/15 00:57:11;;;;;;;3.73;1.80;;;4.60;64.70;;;;;;5093270;28;20028;-90
2021/04/15 00:59:36;;;;;;;3.80;1.75;;;4.60;65.10;;;;;;5092570;28;20465;-90
2021/04/15 01:02:03;;;;;;;2.50;1.53;;;4.60;65.10;;;;;;5093885;28;20039;-90
2021/04/15 01:04:28;;;;;;;5.40;1.87;;;4.60;65.00;;;;;;5092514;28;20024;-90
2021/04/15 01:06:54;;;;;;;4.30;2.00;;;4.60;65.20;;;;;;5093031;28;20025;-89
2021/04/15 01:09:22;;;;;;;3.40;2.37;;;4.70;65.20;;;;;;5092691;28;20161;-86
2021/04/15 01:12:08;;;;;;;3.53;2.20;;;4.70;65.20;;;;;;5093922;28;20032;-86
2021/04/15 01:14:56;;;;;;;5.47;1.97;;;4.60;65.70;;;;;;5092564;28;20028;-86
2021/04/15 01:17:36;;;;;;;3.37;1.80;;;4.60;65.80;;;;;;5092357;28;20032;-86
2021/04/15 01:20:38;;;;;;;5.67;2.10;;;4.60;65.80;;;;;;5093613;28;20031;-86
2021/04/15 01:23:27;;;;;;;2.83;2.10;;;4.60;65.80;;;;;;5093164;28;20473;-86
2021/04/15 01:26:02;;;;;;;6.03;2.43;;;4.60;66.00;;;;;;5092848;28;20292;-87
2021/04/15 01:28:40;;;;;;;3.90;2.20;;;4.60;65.90;;;;;;5093296;28;20065;-86
2021/04/15 01:31:16;;;;;;;4.93;2.50;;;4.50;66.10;;;;;;5093632;28;20016;-86
2021/04/15 01:33:53;;;;;;;5.73;2.70;;;4.50;66.90;;;;;;5092787;28;20118;-87
2021/04/15 01:36:28;;;;;;;4.63;2.50;;;4.50;66.70;;;;;;5092500;28;20031;-86
2021/04/15 01:39:09;;;;;;;6.10;2.40;;;4.50;66.70;;;;;;5092703;28;20054;-87
2021/04/15 01:41:52;;;;;;;4.73;2.57;;;4.40;66.90;;;;;;5094757;28;20567;-87
2021/04/15 01:44:52;;;;;;;5.50;2.17;;;4.40;67.60;;;;;;5092726;28;20533;-86
2021/04/15 01:47:23;;;;;;;3.57;2.40;;;4.40;67.60;;;;;;5095543;28;20024;-87
2021/04/15 01:49:56;;;;;;;5.57;2.67;;;4.40;67.40;;;;;;5096383;28;20064;-87
2021/04/15 01:52:23;;;;;;;3.83;2.60;;;4.30;67.70;;;;;;5114179;28;20046;-87
2021/04/15 01:55:04;;;;;;;4.90;3.00;;;4.30;67.80;;;;;;5117811;28;20024;-87
2021/04/15 01:57:38;;;;;;;5.63;2.77;;;4.20;68.00;;;;;;5117140;28;20107;-87
2021/04/15 02:00:17;;;;;;;3.77;2.60;;;4.20;68.20;;;;;;5099899;28;20031;-87
2021/04/15 02:02:55;;;;;;;4.50;2.40;;;4.20;68.30;;;;;;5117747;28;20029;-87
2021/04/15 02:05:37;;;;;;;4.00;2.63;;;4.20;68.50;;;;;;5098927;28;20027;-86
2021/04/15 02:08:19;;;;;;;5.75;2.60;;;4.20;68.90;;;;;;5099294;28;20026;-87
2021/04/15 02:10:48;;;;;;;6.90;2.83;;;4.20;68.90;;;;;;5099597;28;20057;-86
2021/04/15 02:13:16;;;;;;;6.73;3.10;;;4.20;68.90;;;;;;5099142;28;20036;-86
2021/04/15 02:15:53;;;;;;;5.00;2.90;;;4.10;68.90;;;;;;5099035;28;20137;-87
2021/04/15 02:18:33;;;;;;;8.13;3.43;;;4.20;69.10;;;;;;5116855;28;20472;-85
2021/04/15 02:21:25;;;;;;;6.00;3.03;;;4.10;69.30;;;;;;5117332;28;20031;-86
2021/04/15 02:23:59;;;;;;;5.47;2.60;;;4.10;69.50;;;;;;5069452;28;20046;-85
2021/04/15 02:26:32;;;;;;;5.43;3.13;;;4.10;69.40;;;;;;5098778;28;20073;-87
2021/04/15 02:29:10;;;;;;;5.17;3.00;;;4.00;69.90;;;;;;5098962;28;20051;-88
2021/04/15 02:31:41;;;;;;;7.33;2.90;;;4.00;70.00;;;;;;5098245;28;20114;-88
2021/04/15 02:34:15;;;;;;;3.67;2.60;;;4.10;69.70;;;;;;5098975;28;20027;-88
2021/04/15 02:36:53;;;;;;;5.20;2.73;;;4.00;69.90;;;;;;5098151;28;20050;-87
2021/04/15 02:39:33;;;;;;;6.57;2.90;;;4.10;70.20;;;;;;5116284;28;20065;-84
2021/04/15 02:42:04;;;;;;;5.07;3.10;;;4.20;69.90;;;;;;5098756;28;20365;-86
2021/04/15 02:44:46;;;;;;;4.73;2.87;;;4.20;69.50;;;;;;5116236;28;20051;-88
2021/04/15 02:47:27;;;;;;;4.77;2.90;;;4.20;69.40;;;;;;5117032;28;20028;-88
2021/04/15 02:49:55;;;;;;;6.93;3.00;;;4.00;69.70;;;;;;5098369;28;20035;-88
2021/04/15 02:52:26;;;;;;;6.70;3.10;;;4.00;70.10;;;;;;5098998;28;20052;-88
2021/04/15 02:54:54;;;;;;;5.50;2.93;;;4.00;70.10;;;;;;5098593;28;20031;-88
2021/04/15 02:57:33;;;;;;;4.43;3.10;;;4.00;69.90;;;;;;5116029;28;20102;-87
2021/04/15 03:00:30;;;;;;;6.50;3.03;;;4.10;69.90;;;;;;5098401;28;20028;-88
2021/04/15 03:03:01;;;;;;;6.90;2.90;;;4.10;70.20;;;;;;5096926;28;20044;-88
2021/04/15 03:05:29;;;;;;;5.80;3.10;;;4.00;70.30;;;;;;5098046;28;20020;-86
2021/04/15 03:07:58;;;;;;;5.20;2.90;;;4.00;70.60;;;;;;5098134;28;20020;-87
2021/04/15 03:10:33;;;;;;;3.43;2.67;;;3.90;70.80;;;;;;5097652;28;20023;-87
2021/04/15 03:13:07;;;;;;;4.53;3.20;;;3.80;70.60;;;;;;5116012;28;20180;-88
2021/04/15 03:15:55;;;;;;;4.63;3.30;;;3.80;70.80;;;;;;5115571;28;20096;-88
2021/04/15 03:18:48;;;;;;;4.53;3.03;;;3.80;70.60;;;;;;5115790;28;20460;-83
2021/04/15 03:21:20;;;;;;;9.80;3.10;;;3.70;71.10;;;;;;5098165;28;20069;-86
2021/04/15 03:23:57;;;;;;;5.55;3.15;;;3.60;71.50;;;;;;5097291;28;20019;-86
2021/04/15 03:26:44;;;;;;;5.13;3.40;;;3.60;71.20;;;;;;5097606;28;20036;-85
2021/04/15 03:29:22;;;;;;;4.97;2.63;;;3.60;71.00;;;;;;5097598;28;20057;-85
2021/04/15 03:32:26;;;;;;;6.30;3.57;;;3.60;71.10;;;;;;5115657;28;20032;-85
2021/04/15 03:35:00;;;;;;;5.23;3.13;;;3.50;71.20;;;;;;5042172;28;20036;-86
2021/04/15 03:37:37;;;;;;;7.30;3.43;;;3.40;71.50;;;;;;5115485;28;20027;-85
2021/04/15 03:40:06;;;;;;;7.77;3.63;;;3.40;71.90;;;;;;5097727;28;20027;-85
2021/04/15 03:42:41;;;;;;;6.30;3.40;;;3.30;72.10;;;;;;5115137;28;20072;-86
2021/04/15 03:45:19;;;;;;;6.97;3.43;;;3.30;72.20;;;;;;5097332;28;20468;-86
2021/04/15 03:47:50;;;;;;;7.27;3.77;;;3.20;73.00;;;;;;5097152;28;20034;-86
2021/04/15 03:50:19;;;;;;;5.73;3.50;;;3.20;73.00;;;;;;5097509;28;20493;-86
2021/04/15 03:53:00;;;;;;;5.63;3.50;;;3.20;72.70;;;;;;5114757;28;20035;-86
2021/04/15 03:55:40;;;;;;;9.68;3.60;;;3.20;73.30;;;;;;5114785;28;20059;-85
2021/04/15 03:58:13;;;;;;;7.93;3.50;;;3.20;72.90;;;;;;5097140;28;20032;-85
2021/04/15 04:00:44;;;;;;;6.20;3.20;;;3.00;73.20;;;;;;5096718;28;20051;-86
2021/04/15 04:03:16;;;;;;;8.15;3.78;;;2.90;73.50;;;;;;5115359;28;20039;-87
2021/04/15 04:05:47;;;;;;;5.15;3.10;;;2.90;74.20;;;;;;5115033;28;20023;-87
2021/04/15 04:08:21;;;;;;;6.77;3.57;;;2.90;73.80;;;;;;5096731;28;20384;-87
2021/04/15 04:10:49;;;;;;;7.03;4.00;;;2.90;73.50;;;;;;5096521;28;20057;-87
2021/04/15 04:13:33;;;;;;;6.13;4.13;;;2.90;73.80;;;;;;5096939;28;20031;-87
2021/04/15 04:16:13;;;;;;;5.67;3.50;;;2.90;73.80;;;;;;5096819;28;20499;-87
2021/04/15 04:18:50;;;;;;;7.37;3.40;;;2.80;74.00;;;;;;5114490;28;20019;-86
2021/04/15 04:21:25;;;;;;;5.67;3.57;;;2.80;74.30;;;;;;5114717;28;20026;-89
2021/04/15 04:24:22;;;;;;;4.47;3.37;;;2.80;74.70;;;;;;5114769;28;20027;-89
2021/04/15 04:26:57;;;;;;;5.83;3.60;;;2.70;75.00;;;;;;5096466;28;20061;-89
2021/04/15 04:29:51;;;;;;;8.70;4.03;;;2.70;75.30;;;;;;5096904;28;20091;-90
2021/04/15 04:32:21;;;;;;;6.27;3.70;;;2.70;75.30;;;;;;5114858;28;20032;-89
2021/04/15 04:34:57;;;;;;;9.07;4.60;;;2.80;75.00;;;;;;5096189;28;20023;-88
2021/04/15 04:37:32;;;;;;;8.17;4.33;;;2.70;75.00;;;;;;5096550;28;20392;-89
2021/04/15 04:39:59;;;;;;;8.63;4.00;;;2.70;75.50;;;;;;5114590;28;20030;-88
2021/04/15 04:42:51;;;;;;;7.53;4.13;;;2.70;75.10;;;;;;5096488;28;20032;-89
2021/04/15 04:45:18;;;;;;;6.05;3.78;;;2.80;74.70;;;;;;5114579;28;20024;-87
2021/04/15 04:47:49;;;;;;;4.70;3.50;;;2.70;74.90;;;;;;5095918;28;20031;-88
2021/04/15 04:50:24;;;;;;;5.00;3.20;;;2.70;74.90;;;;;;5114074;28;20477;-88
2021/04/15 04:53:02;;;;;;;7.10;3.73;;;2.70;74.50;;;;;;5095846;28;20039;-88
2021/04/15 04:55:46;;;;;;;6.60;4.17;;;2.70;74.70;;;;;;5095982;28;20114;-88
2021/04/15 04:58:15;;;;;;;7.13;3.60;;;2.60;74.70;;;;;;5096608;28;20027;-88
2021/04/15 05:00:50;;;;;;;5.10;3.70;;;2.60;75.00;;;;;;5095990;28;20031;-87
2021/04/15 05:03:21;;;;;;;7.00;4.27;;;2.50;75.00;;;;;;5096847;28;20077;-88
2021/04/15 05:05:47;;;;;;;6.17;4.23;;;2.50;75.40;;;;;;5095846;28;20027;-88
2021/04/15 05:08:26;;;;;;;6.53;4.13;;;2.40;75.90;;;;;;5096525;28;20027;-88
2021/04/15 05:10:54;;;;;;;5.57;3.67;;;2.60;75.80;;;;;;5096106;28;20533;-87
2021/04/15 05:13:24;;;;;;;7.20;3.90;;;2.50;75.70;;;;;;5096749;28;20035;-87
2021/04/15 05:15:50;;;;;;;6.27;4.07;;;2.40;76.00;;;;;;5114307;28;20459;-87
2021/04/15 05:18:18;;;;;;;8.07;4.27;;;2.50;76.30;;;;;;5114279;28;20105;-87
2021/04/15 05:20:44;;;;;;;7.60;4.43;;;2.40;76.30;;;;;;5097551;28;20100;-87
2021/04/15 05:23:24;;;;;;;8.93;4.50;;;2.40;76.60;;;;;;5118031;28;20468;-88
2021/04/15 05:26:15;;;;;;;8.87;5.00;;;2.40;76.90;;;;;;5099804;28;20031;-88
2021/04/15 05:28:41;;;;;;;5.87;4.43;;;2.30;77.00;;;;;;5099747;28;20030;-88
2021/04/15 05:31:13;;;;;;;10.83;4.93;;;2.30;78.00;;;;;;5100077;28;20114;-85
2021/04/15 05:33:39;;;;;;;7.70;4.88;;;2.40;77.40;;;;;;5099407;28;20049;-85
2021/04/15 05:36:22;;;;;;;9.17;4.93;;;2.40;77.50;;;;;;5117845;28;20055;-86
2021/04/15 05:39:00;;;;;;;9.30;4.63;;;2.50;77.30;;;;;;5117413;28;20039;-85
2021/04/15 05:41:46;;;;;;;8.10;4.30;;;2.50;76.90;;;;;;5100061;28;20031;-85
2021/04/15 05:44:24;;;;;;;9.03;4.57;;;2.50;77.10;;;;;;5099965;28;20024;-86
2021/04/15 05:46:52;;;;;;;7.87;4.50;;;2.60;76.90;;;;;;5099196;28;20035;-86
2021/04/15 05:49:24;;;;;;;8.70;4.60;;;2.70;76.90;;;;;;5099784;28;20118;-86
2021/04/15 05:52:02;;;;;;;11.33;5.23;;;2.70;77.10;;;;;;5098747;28;20051;-85
2021/04/15 05:54:31;;;;;;;9.20;4.73;;;2.80;77.40;;;;;;5099693;28;20138;-85
2021/04/15 05:57:02;;;;;;;7.97;5.00;;;2.90;77.00;;;;;;5117509;28;20024;-85
2021/04/15 06:00:18;;;;;;;7.65;4.30;;;3.00;77.00;;;;;;5099698;28;20035;-85
2021/04/15 06:02:54;;;;;;;7.60;5.07;;;3.00;76.70;;;;;;4997647;28;20540;-85
2021/04/15 06:05:35;;;;;;;10.00;5.60;;;3.00;77.10;;;;;;5094346;28;20039;-86
2021/04/15 06:08:07;;;;;;;8.90;4.87;;;3.10;76.70;;;;;;5078411;28;20030;-85
2021/04/15 06:10:36;;;;;;;10.27;5.67;;;3.20;76.30;;;;;;5095659;28;20031;-85
2021/04/15 06:13:05;;;;;;;9.40;4.93;;;3.10;76.40;;;;;;5078445;28;20036;-86
2021/04/15 06:15:30;;;;;;;9.97;5.10;;;3.10;76.30;;;;;;5096896;28;20024;-86
2021/04/15 06:18:08;;;;;;;10.23;5.17;;;3.10;76.70;;;;;;5093934;28;20036;-86
2021/04/15 06:20:42;;;;;;;7.90;4.30;;;3.10;76.90;;;;;;5098643;28;20046;-86
2021/04/15 06:23:18;;;;;;;7.20;4.60;;;3.20;76.80;;;;;;5099128;28;20042;-86
2021/04/15 06:25:49;;;;;;;7.20;4.10;;;3.20;76.80;;;;;;5098787;28;20496;-87
2021/04/15 06:28:30;;;;;;;7.70;4.68;;;3.20;76.50;;;;;;5099249;28;20028;-85
2021/04/15 06:31:19;;;;;;;10.90;4.57;;;3.30;76.90;;;;;;5097964;28;20028;-85
2021/04/15 06:33:45;;;;;;;6.63;4.67;;;3.40;76.90;;;;;;5099884;28;20061;-85
2021/04/15 06:36:27;;;;;;;10.37;4.43;;;3.40;76.50;;;;;;5100249;28;20057;-85
2021/04/15 06:39:09;;;;;;;10.63;5.03;;;3.40;76.50;;;;;;5098936;28;20441;-84
2021/04/15 06:42:32;;;;;;;8.23;4.37;;;3.40;76.20;;;;;;5099274;28;20073;-84
2021/04/15 06:45:10;;;;;;;7.50;4.37;;;3.50;76.60;;;;;;4999956;28;20026;-85
2021/04/15 06:48:02;;;;;;;9.37;5.10;;;3.50;76.00;;;;;;5014200;28;20026;-85
2021/04/15 06:51:10;;;;;;;9.30;4.53;;;3.50;75.80;;;;;;5075842;28;20495;-85
2021/04/15 06:53:48;;;;;;;6.13;4.27;;;3.60;76.40;;;;;;5115497;28;20484;-84
2021/04/15 06:56:35;;;;;;;8.13;4.53;;;3.60;76.10;;;;;;5116399;28;20027;-85
2021/04/15 06:59:11;;;;;;;9.70;5.00;;;3.60;75.60;;;;;;5098667;28;20114;-86
2021/04/15 07:02:05;;;;;;;7.63;4.20;;;3.60;75.50;;;;;;5097829;28;20024;-85
2021/04/15 07:04:38;;;;;;;8.77;4.80;;;3.70;75.70;;;;;;5115680;28;20027;-85
2021/04/15 07:07:43;;;;;;;7.03;3.87;;;3.80;75.40;;;;;;5115230;28;20032;-86
2021/04/15 07:10:20;;;;;;;7.30;3.87;;;3.90;75.00;;;;;;5057529;28;20032;-85
2021/04/15 07:13:22;;;;;;;7.90;4.60;;;3.80;74.50;;;;;;5115447;28;20034;-86
2021/04/15 07:16:06;;;;;;;;;;;3.80;74.80;;;;;;5115757;28;20043;-86
2021/04/15 07:19:11;;;;;;;9.77;4.20;;;3.80;75.20;;;;;;5115999;28;20413;-86
2021/04/15 07:21:49;;;;;;;8.60;4.40;;;3.80;75.30;;;;;;5097607;28;20115;-83
2021/04/15 07:24:27;;;;;;;8.33;4.27;;;4.00;74.80;;;;;;5115261;28;20487;-84
2021/04/15 07:27:38;;;;;;;8.03;4.00;;;4.00;74.30;;;;;;5097267;28;20411;-83
2021/04/15 07:30:24;;;;;;;6.67;4.07;;;4.10;74.70;;;;;;5013302;28;20038;-84
2021/04/15 07:33:17;;;;;;;7.13;3.67;;;4.20;73.60;;;;;;5000228;28;20056;-85
2021/04/15 07:35:58;;;;;;;6.77;3.33;;;4.20;73.00;;;;;;5093542;28;20089;-85
2021/04/15 07:38:38;;;;;;;5.50;3.20;;;4.30;72.40;;;;;;5115421;28;20058;-86
2021/04/15 07:41:34;;;;;;;5.53;3.30;;;4.30;72.30;;;;;;5108605;28;20085;-86
2021/04/15 07:44:32;;;;;;;6.33;3.60;;;4.30;71.80;;;;;;5113687;28;20035;-87
2021/04/15 07:47:06;;;;;;;6.57;3.40;;;4.50;72.00;;;;;;5096412;28;20032;-89
2021/04/15 07:49:56;;;;;;;6.00;3.10;;;4.60;71.70;;;;;;5096386;28;20315;-90
2021/04/15 07:52:40;;;;;;;5.47;3.30;;;4.70;71.20;;;;;;5094562;28;20134;-88
2021/04/15 07:55:51;;;;;;;5.90;3.30;;;4.70;70.80;;;;;;5095931;28;20019;-88
2021/04/15 07:58:35;;;;;;;4.57;2.97;;;4.80;70.70;;;;;;5111990;28;20019;-89
2021/04/15 08:01:21;;;;;;;5.13;3.30;;;4.80;69.70;;;;;;5094294;28;20026;-86
2021/04/15 08:04:02;;;;;;;6.20;2.77;;;4.80;69.90;;;;;;5096557;28;20023;-86
2021/04/15 08:06:49;;;;;;;3.80;2.30;;;4.80;69.90;;;;;;5095661;28;20456;-88
2021/04/15 08:09:52;;;;;;;3.80;2.27;;;4.90;69.50;;;;;;5093710;28;20532;-87
2021/04/15 08:12:24;;;;;;;3.63;2.00;;;4.90;69.20;;;;;;5093630;28;20031;-86
2021/04/15 08:15:19;;;;;;;4.90;2.30;;;5.00;69.10;;;;;;5095694;28;20016;-85
2021/04/15 08:17:51;;;;;;;3.67;1.90;;;5.10;68.90;;;;;;5111414;28;20023;-86
2021/04/15 08:20:49;;;;;;;3.47;2.03;;;5.20;68.00;;;;;;5093421;28;20042;-86
2021/04/15 08:23:42;;;;;;;5.90;2.37;;;5.10;68.20;;;;;;5110817;28;20040;-85
2021/04/15 08:26:26;;;;;;;;;;;5.20;67.70;;;;;;5080783;28;20023;-86
2021/04/15 08:29:03;;;;;;;4.47;1.90;;;5.20;66.70;;;;;;5112753;28;19908;-85
2021/04/15 08:31:53;;;;;;;3.80;1.83;;;5.30;66.80;;;;;;5094275;28;20031;-85
2021/04/15 08:34:40;;;;;;;3.90;2.20;;;5.30;67.00;;;;;;5086063;28;20499;-78
2021/04/15 08:37:16;;;;;;;3.03;1.77;;;5.40;66.80;;;;;;5114009;28;20027;-78
2021/04/15 08:40:41;;;;;;;5.10;2.03;;;5.50;66.00;;;;;;5095050;28;20020;-75
2021/04/15 08:43:13;;;;;;;4.20;2.30;;;5.60;65.70;;;;;;5010659;28;20037;-79
2021/04/15 08:45:49;;;;;;;3.50;2.05;;;5.70;64.80;;;;;;4994166;28;20030;-80
2021/04/15 08:48:37;;;;;;;4.93;2.23;;;5.80;63.80;;;;;;5076891;28;20044;-79
2021/04/15 08:51:40;;;;;;;3.97;1.83;;;5.90;63.90;;;;;;5092566;28;20106;-80
2021/04/15 08:54:17;;;;;;;5.00;1.87;;;6.00;63.20;;;;;;5094488;28;20039;-79
2021/04/15 08:57:00;;;;;;;5.50;2.07;;;6.00;63.80;;;;;;5099746;28;20201;-78
2021/04/15 08:59:42;;;;;;;;;;;6.00;63.10;;;;;;5101244;28;20027;-78
2021/04/15 09:02:23;;;;;;;;;;;6.10;63.40;;;;;;5116152;28;19904;-78
2021/04/15 09:05:01;;;;;;;2.87;1.37;;;6.20;63.00;;;;;;5100870;28;19903;-81
2021/04/15 09:07:47;;;;;;;4.37;1.80;;;6.30;61.10;;;;;;5101545;28;20028;-78
2021/04/15 09:10:45;;;;;;;2.87;1.67;;;6.50;60.60;;;;;;5101644;28;20035;-77
2021/04/15 09:14:08;;;;;;;3.60;1.70;;;6.70;59.30;;;;;;5081965;28;20043;-79
2021/04/15 09:16:38;;;;;;;;;;;6.80;59.60;;;;;;5017381;28;20157;-78
2021/04/15 09:19:34;;;;;;;7.93;2.33;;;7.00;59.50;;;;;;5016566;28;19913;-79
2021/04/15 09:22:28;;;;;;;3.37;1.50;;;7.00;59.40;;;;;;5015778;28;20207;-79
2021/04/15 09:25:32;;;;;;;4.77;2.37;;;7.10;58.00;;;;;;5016106;28;20026;-80
2021/04/15 09:28:11;;;;;;;3.97;2.53;;;7.20;59.00;;;;;;5016589;28;20034;-80
2021/04/15 09:30:42;;;;;;;4.80;2.63;;;7.20;59.70;;;;;;5017247;28;20132;-79
2021/04/15 09:33:34;;;;;;;2.50;1.60;;;7.30;59.10;;;;;;5031030;28;20055;-81
2021/04/15 09:36:06;;;;;;;5.18;2.67;;;7.30;58.70;;;;;;5035656;28;20040;-76
2021/04/15 09:38:59;;;;;;;7.00;2.90;;;7.30;58.50;;;;;;5016535;28;20149;-78
2021/04/15 09:41:52;;;;;;;104.40;41.67;;;7.40;59.00;;;;;;5021822;28;20096;-78
2021/04/15 09:44:24;;;;;;;8.03;4.50;;;7.50;57.50;;;;;;5037731;28;20120;-80
2021/04/15 09:47:00;;;;;;;;;;;7.50;57.60;;;;;;5045819;28;20042;-81
2021/04/15 09:49:32;;;;;;;4.47;2.97;;;7.50;57.30;;;;;;5104893;28;19915;-81
2021/04/15 09:52:13;;;;;;;4.00;2.70;;;7.60;57.00;;;;;;5097688;28;20048;-83
2021/04/15 09:55:15;;;;;;;4.43;2.83;;;7.60;57.40;;;;;;5099311;28;20114;-81
2021/04/15 09:58:19;;;;;;;6.70;2.90;;;7.60;57.40;;;;;;5100263;28;20050;-82
2021/04/15 10:00:50;;;;;;;5.33;2.07;;;7.60;56.70;;;;;;5099745;28;20024;-83
2021/04/15 10:03:47;;;;;;;4.22;2.17;;;7.60;56.30;;;;;;5099169;28;20024;-83
2021/04/15 10:06:26;;;;;;;4.73;2.00;;;7.60;54.50;;;;;;5095628;28;20051;-83
2021/04/15 10:08:55;;;;;;;4.60;2.10;;;7.70;54.30;;;;;;5095396;28;20051;-82
2021/04/15 10:11:49;;;;;;;4.53;2.03;;;7.70;54.30;;;;;;5095761;28;20469;-82
2021/04/15 10:14:32;;;;;;;2.50;2.10;;;7.80;54.10;;;;;;5096201;28;20074;-82
2021/04/15 10:17:09;;;;;;;4.43;2.07;;;7.80;54.30;;;;;;5094449;28;20031;-80
2021/04/15 10:19:43;;;;;;;3.78;2.13;;;7.80;54.40;;;;;;5096764;28;20024;-82
2021/04/15 10:22:34;;;;;;;5.13;2.60;;;7.80;54.70;;;;;;5097258;28;20041;-80
2021/04/15 10:25:19;;;;;;;5.63;2.30;;;7.70;54.20;;;;;;5095839;28;20377;-82
2021/04/15 10:28:22;;;;;;;8.77;2.00;;;7.60;53.60;;;;;;5095179;28;20025;-82
2021/04/15 10:31:32;;;;;;;5.00;2.30;;;7.50;53.20;;;;;;5095499;28;20020;-82
2021/04/15 10:34:12;;;;;;;4.97;2.00;;;7.60;53.90;;;;;;5015105;28;20038;-81
2021/04/15 10:36:45;;;;;;;5.03;1.77;;;7.80;50.70;;;;;;5069684;28;20165;-83
2021/04/15 10:39:31;;;;;;;3.27;1.83;;;7.80;51.30;;;;;;5095338;28;20032;-83
2021/04/15 10:42:25;;;;;;;3.67;1.87;;;7.80;51.60;;;;;;5098372;28;20032;-82
2021/04/15 10:45:04;;;;;;;5.00;1.97;;;7.80;51.90;;;;;;5099480;28;20016;-81
2021/04/15 10:48:23;;;;;;;4.77;1.77;;;7.80;52.10;;;;;;5097813;28;20500;-82
2021/04/15 10:50:58;;;;;;;4.83;1.90;;;7.90;52.00;;;;;;5016131;28;20045;-82
2021/04/15 10:53:47;;;;;;;2.07;1.60;;;8.00;52.20;;;;;;5032959;28;20048;-82
2021/04/15 10:56:32;;;;;;;3.33;1.37;;;8.10;50.60;;;;;;5033862;28;20033;-83
2021/04/15 10:59:01;;;;;;;2.55;1.63;;;8.20;50.80;;;;;;5032008;28;20052;-78
2021/04/15 11:01:34;;;;;;;2.00;1.40;;;8.40;50.70;;;;;;5044540;28;20041;-78
2021/04/15 11:04:09;;;;;;;2.33;1.20;;;8.60;49.40;;;;;;5031081;28;20498;-78
2021/04/15 11:06:43;;;;;;;2.93;1.60;;;8.70;48.80;;;;;;5031791;28;20064;-78
2021/04/15 11:09:27;;;;;;;2.45;1.30;;;8.70;49.00;;;;;;5031619;28;20034;-79
2021/04/15 11:12:19;;;;;;;3.50;1.90;;;8.70;49.40;;;;;;5011667;28;20069;-79
2021/04/15 11:14:45;;;;;;;2.10;1.47;;;8.60;49.20;;;;;;5028932;28;20037;-81
2021/04/15 11:17:33;;;;;;;3.22;1.88;;;8.70;51.20;;;;;;5014500;28;20282;-79
2021/04/15 11:20:29;;;;;;;2.38;1.77;;;8.80;52.30;;;;;;5014238;28;20030;-78
2021/04/15 11:23:28;;;;;;;3.60;2.00;;;8.80;53.60;;;;;;5092720;28;20036;-79
2021/04/15 11:26:08;;;;;;;3.30;1.90;;;9.00;54.20;;;;;;5091025;28;20028;-81
2021/04/15 11:28:34;;;;;;;3.13;1.88;;;9.10;52.90;;;;;;5091525;28;20028;-79
2021/04/15 11:31:15;;;;;;;2.22;1.60;;;9.30;53.10;;;;;;5092782;28;20035;-80
2021/04/15 11:33:43;;;;;;;3.05;1.35;;;9.40;53.30;;;;;;5093727;28;20028;-81
2021/04/15 11:36:32;;;;;;;2.35;1.42;;;9.50;51.80;;;;;;5092581;28;20035;-77
2021/04/15 11:39:03;;;;;;;1.90;1.17;;;9.60;50.70;;;;;;5091699;28;20068;-78
2021/04/15 11:41:30;;;;;;;2.80;1.20;;;9.70;49.40;;;;;;5093796;28;20024;-75
2021/04/15 11:44:05;;;;;;;3.13;1.30;;;9.90;49.30;;;;;;5093025;28;20032;-75
2021/04/15 11:46:49;;;;;;;2.25;1.05;;;10.10;49.20;;;;;;5092291;28;20078;-75
2021/04/15 11:49:38;;;;;;;1.73;1.08;;;10.30;49.60;;;;;;5092928;28;20185;-77
2021/04/15 11:52:18;;;;;;;1.60;1.25;;;10.40;47.10;;;;;;5092168;28;20055;-75
2021/04/15 11:54:53;;;;;;;2.38;1.50;;;10.40;47.90;;;;;;5093594;28;20035;-75
2021/04/15 11:57:19;;;;;;;3.28;1.67;;;10.40;47.40;;;;;;5092564;28;20024;-76
2021/04/15 11:59:59;;;;;;;2.47;1.65;;;10.30;48.10;;;;;;5092812;28;20051;-75
2021/04/15 12:03:03;;;;;;;2.25;1.40;;;10.40;50.00;;;;;;5092118;28;20028;-75
2021/04/15 12:05:41;;;;;;;1.73;1.33;;;10.50;49.20;;;;;;5093416;28;20036;-75
2021/04/15 12:08:30;;;;;;;3.72;1.33;;;10.60;45.50;;;;;;5091282;28;20070;-76
2021/04/15 12:11:00;;;;;;;2.58;1.38;;;10.50;45.70;;;;;;5091800;28;20020;-78
2021/04/15 12:13:49;;;;;;;2.28;1.20;;;10.50;44.70;;;;;;5091938;28;20101;-77
2021/04/15 12:16:43;;;;;;;1.63;1.10;;;10.50;44.70;;;;;;5092050;28;20051;-76
2021/04/15 12:19:31;;;;;;;1.50;1.20;;;10.40;44.40;;;;;;5091542;28;20233;-76
2021/04/15 12:22:20;;;;;;;1.83;1.17;;;10.40;45.60;;;;;;5091587;28;20472;-76
2021/04/15 12:24:49;;;;;;;2.70;1.02;;;10.30;46.20;;;;;;5092312;28;20027;-76
2021/04/15 12:27:23;;;;;;;3.42;1.00;;;10.50;46.00;;;;;;5091578;28;20024;-76
2021/04/15 12:29:55;;;;;;;1.67;1.23;;;10.70;45.10;;;;;;5093059;28;20139;-77
2021/04/15 12:32:45;;;;;;;2.55;1.25;;;11.00;45.30;;;;;;5091852;28;20040;-76
2021/04/15 12:35:22;;;;;;;1.00;0.90;;;11.00;43.80;;;;;;5090964;28;20051;-77
2021/04/15 12:37:53;;;;;;;1.23;0.93;;;11.10;44.00;;;;;;5093072;28;20020;-76
2021/04/15 12:40:33;;;;;;;1.30;1.20;;;11.30;44.90;;;;;;5093114;28;20024;-77
2021/04/15 12:43:16;;;;;;;1.45;1.33;;;11.80;45.20;;;;;;5091387;28;20532;-77
2021/04/15 12:45:54;;;;;;;3.03;1.20;;;12.40;42.90;;;;;;5091401;28;20358;-77
2021/04/15 12:48:42;;;;;;;2.28;1.20;;;12.90;42.40;;;;;;5092970;28;20484;-76
2021/04/15 12:51:12;;;;;;;3.85;1.30;;;13.30;41.20;;;;;;5099025;28;20048;-76
2021/04/15 12:53:41;;;;;;;1.15;1.00;;;12.70;42.00;;;;;;5112574;28;20040;-76
2021/04/15 12:56:12;;;;;;;2.25;1.20;;;12.10;42.10;;;;;;5112334;28;20034;-80
2021/04/15 12:58:37;;;;;;;1.92;0.90;;;11.60;43.80;;;;;;5095836;28;20426;-79
2021/04/15 13:01:04;;;;;;;2.55;1.20;;;11.30;45.80;;;;;;5095348;28;20034;-82
2021/04/15 13:03:37;;;;;;;1.63;1.00;;;11.10;46.60;;;;;;5113333;28;20031;-79
2021/04/15 13:06:13;;;;;;;3.33;1.52;;;10.90;45.20;;;;;;5113224;28;20042;-82
2021/04/15 13:08:40;;;;;;;2.17;0.90;;;10.80;45.80;;;;;;5095189;28;20035;-82
2021/04/15 13:11:32;;;;;;;1.80;1.20;;;10.70;47.10;;;;;;5095170;28;20473;-79
2021/04/15 13:14:00;;;;;;;1.85;1.02;;;10.80;47.80;;;;;;5083011;28;20043;-83
2021/04/15 13:16:34;;;;;;;1.00;0.80;;;10.70;46.50;;;;;;5097591;28;20047;-78
2021/04/15 13:19:04;;;;;;;1.60;1.30;;;10.80;48.00;;;;;;5098795;28;20036;-82
2021/04/15 13:21:39;;;;;;;2.05;1.20;;;10.70;45.40;;;;;;5092706;28;20361;-83
2021/04/15 13:24:48;;;;;;;1.38;1.00;;;10.70;46.20;;;;;;5076942;28;20035;-83
2021/04/15 13:27:36;;;;;;;1.35;0.90;;;10.60;43.40;;;;;;4995485;28;20109;-82
2021/04/15 13:30:20;;;;;;;2.22;1.02;;;10.80;45.60;;;;;;4993238;28;20476;-79
2021/04/15 13:33:12;;;;;;;1.42;1.00;;;11.30;41.80;;;;;;5005192;28;20042;-83
2021/04/15 13:35:49;;;;;;;1.25;1.10;;;11.80;41.90;;;;;;4990178;28;20034;-79
2021/04/15 13:38:31;;;;;;;1.85;0.90;;;11.90;41.10;;;;;;5007951;28;20057;-83
2021/04/15 13:41:00;;;;;;;2.40;1.00;;;12.90;39.50;;;;;;5001051;28;20026;-83
2021/04/15 13:43:43;;;;;;;0.93;0.63;;;13.60;38.10;;;;;;4986228;28;20062;-80
2021/04/15 13:46:22;;;;;;;2.58;0.75;;;14.40;37.40;;;;;;4988111;28;20415;-77
2021/04/15 13:49:08;;;;;;;1.30;0.82;;;15.20;38.30;;;;;;4997068;28;20101;-79
2021/04/15 13:52:06;;;;;;;1.08;0.60;;;15.70;35.60;;;;;;5013547;28;20054;-77
2021/04/15 13:54:37;;;;;;;1.25;0.68;;;16.00;33.80;;;;;;5008902;28;20419;-76
2021/04/15 13:57:11;;;;;;;2.00;0.80;;;16.20;33.30;;;;;;5011147;28;20035;-77
2021/04/15 13:59:42;;;;;;;1.88;1.00;;;16.10;32.60;;;;;;5097955;28;20477;-80